createdAt,value
2022-09-22T00:00:59.835Z,4.30
2022-09-22T00:03:30.956Z,4.83
2022-09-22T00:06:00.539Z,5.97
2022-09-22T00:08:28.289Z,5.53
2022-09-22T00:11:03.705Z,5.80
2022-09-22T00:13:31.674Z,5.57
2022-09-22T00:16:00.412Z,15.40
2022-09-22T00:18:30.586Z,6.73
2022-09-22T00:20:58.111Z,4.70
2022-09-22T00:23:26.080Z,4.40
2022-09-22T00:25:54.489Z,6.27
2022-09-22T00:28:22.803Z,5.60
2022-09-22T00:30:50.320Z,5.03
2022-09-22T00:33:17.874Z,7.30
2022-09-22T00:35:56.884Z,5.50
2022-09-22T00:38:25.149Z,5.00
2022-09-22T00:40:52.776Z,5.47
2022-09-22T00:43:22.497Z,5.57
2022-09-22T00:45:53.242Z,6.50
2022-09-22T00:48:22.361Z,5.40
2022-09-22T00:50:52.778Z,5.67
2022-09-22T00:53:22.022Z,6.10
2022-09-22T00:55:51.517Z,5.33
2022-09-22T00:58:21.050Z,5.60
2022-09-22T01:00:48.972Z,5.13
2022-09-22T01:03:18.514Z,5.50
2022-09-22T01:05:49.012Z,5.70
2022-09-22T01:08:19.007Z,4.90
2022-09-22T01:10:48.240Z,6.77
2022-09-22T01:13:23.369Z,5.57
2022-09-22T01:15:56.114Z,6.20
2022-09-22T01:18:28.794Z,6.20
2022-09-22T01:21:15.383Z,6.30
2022-09-22T01:24:07.214Z,5.90
2022-09-22T01:26:50.343Z,5.27
2022-09-22T01:29:27.825Z,5.80
2022-09-22T01:31:59.414Z,5.80
2022-09-22T01:34:29.580Z,5.80
2022-09-22T01:37:03.798Z,5.47
2022-09-22T01:39:34.203Z,5.60
2022-09-22T01:42:05.032Z,5.53
2022-09-22T01:44:33.957Z,5.87
2022-09-22T01:47:05.833Z,5.80
2022-09-22T01:49:34.810Z,4.90
2022-09-22T01:52:04.418Z,5.27
2022-09-22T01:54:34.067Z,5.30
2022-09-22T01:57:05.798Z,4.93
2022-09-22T01:59:36.115Z,5.00
2022-09-22T02:02:07.875Z,5.10
2022-09-22T02:04:36.899Z,4.50
2022-09-22T02:07:06.193Z,4.43
2022-09-22T02:09:34.973Z,4.80
2022-09-22T02:12:03.409Z,5.10
2022-09-22T02:14:31.200Z,4.80
2022-09-22T02:17:00.012Z,4.80
2022-09-22T02:19:33.350Z,4.17
2022-09-22T02:22:01.536Z,4.50
2022-09-22T02:24:30.278Z,4.30
2022-09-22T02:26:58.753Z,4.17
2022-09-22T02:29:27.853Z,4.50
2022-09-22T02:31:56.352Z,4.50
2022-09-22T02:34:24.209Z,4.30
2022-09-22T02:36:56.642Z,4.50
2022-09-22T02:39:28.583Z,4.60
2022-09-22T02:42:07.287Z,4.27
2022-09-22T02:44:37.059Z,4.37
2022-09-22T02:47:07.349Z,4.40
2022-09-22T02:49:35.399Z,4.20
2022-09-22T02:52:09.095Z,3.80
2022-09-22T02:54:36.752Z,4.53
2022-09-22T02:57:04.547Z,4.77
2022-09-22T02:59:32.712Z,4.30
2022-09-22T03:02:00.611Z,4.10
2022-09-22T03:04:28.578Z,4.00
2022-09-22T03:06:56.551Z,4.33
2022-09-22T03:09:25.853Z,4.70
2022-09-22T03:11:53.602Z,4.67
2022-09-22T03:14:21.177Z,4.50
2022-09-22T03:16:48.764Z,4.60
2022-09-22T03:19:16.304Z,4.17
2022-09-22T03:21:44.275Z,4.00
2022-09-22T03:24:11.721Z,4.57
2022-09-22T03:26:40.777Z,4.50
2022-09-22T03:29:08.603Z,5.17
2022-09-22T03:31:36.147Z,4.80
2022-09-22T03:34:04.431Z,4.93
2022-09-22T03:36:32.217Z,5.20
2022-09-22T03:39:00.348Z,5.00
2022-09-22T03:41:27.975Z,5.13
2022-09-22T03:43:57.067Z,5.13
2022-09-22T03:46:24.999Z,4.90
2022-09-22T03:48:52.560Z,4.70
2022-09-22T03:51:20.471Z,4.80
2022-09-22T03:53:48.070Z,4.50
2022-09-22T03:56:16.515Z,4.73
2022-09-22T03:58:44.491Z,4.30
2022-09-22T04:01:13.636Z,4.97
2022-09-22T04:03:41.435Z,4.53
2022-09-22T04:06:09.475Z,4.73
2022-09-22T04:08:37.359Z,5.10
2022-09-22T04:11:05.542Z,5.23
2022-09-22T04:13:35.478Z,5.43
2022-09-22T04:16:04.136Z,4.47
2022-09-22T04:18:33.038Z,5.40
2022-09-22T04:21:01.270Z,4.90
2022-09-22T04:23:28.987Z,4.80
2022-09-22T04:25:56.571Z,4.40
2022-09-22T04:28:24.083Z,4.33
2022-09-22T04:30:51.775Z,4.20
2022-09-22T04:33:19.302Z,5.10
2022-09-22T04:35:50.546Z,5.40
2022-09-22T04:38:18.555Z,5.47
2022-09-22T04:40:46.386Z,4.83
2022-09-22T04:43:14.290Z,4.83
2022-09-22T04:45:43.813Z,4.83
2022-09-22T04:48:11.602Z,5.17
2022-09-22T04:50:39.310Z,5.20
2022-09-22T04:53:09.148Z,4.83
2022-09-22T04:55:37.121Z,5.17
2022-09-22T04:58:04.984Z,5.57
2022-09-22T05:00:32.620Z,5.63
2022-09-22T05:03:01.954Z,5.30
2022-09-22T05:05:29.920Z,5.23
2022-09-22T05:07:57.421Z,5.20
2022-09-22T05:10:27.176Z,4.73
2022-09-22T05:12:54.730Z,5.53
2022-09-22T05:15:22.739Z,5.20
2022-09-22T05:17:50.896Z,5.67
2022-09-22T05:20:19.131Z,5.90
2022-09-22T05:22:47.343Z,5.80
2022-09-22T05:25:15.945Z,6.30
2022-09-22T05:27:46.238Z,6.40
2022-09-22T05:30:14.038Z,6.57
2022-09-22T05:32:43.779Z,6.60
2022-09-22T05:35:11.855Z,5.10
2022-09-22T05:37:39.321Z,5.40
2022-09-22T05:40:07.855Z,5.10
2022-09-22T05:42:35.476Z,5.07
2022-09-22T05:45:04.599Z,5.83
2022-09-22T05:47:34.333Z,5.60
2022-09-22T05:50:02.278Z,5.80
2022-09-22T05:52:29.804Z,4.93
2022-09-22T05:54:58.084Z,5.03
2022-09-22T05:57:27.689Z,5.20
2022-09-22T05:59:55.575Z,4.90
2022-09-22T06:02:26.433Z,5.10
2022-09-22T06:04:54.810Z,5.60
2022-09-22T06:07:22.557Z,5.90
2022-09-22T06:09:50.849Z,5.97
2022-09-22T06:12:18.955Z,4.70
2022-09-22T06:14:46.397Z,4.37
2022-09-22T06:17:13.965Z,4.40
2022-09-22T06:19:43.459Z,4.00
2022-09-22T06:22:11.611Z,4.40
2022-09-22T06:24:39.463Z,4.73
2022-09-22T06:27:07.651Z,4.83
2022-09-22T06:29:36.491Z,4.70
2022-09-22T06:32:04.045Z,7.97
2022-09-22T06:34:33.058Z,6.10
2022-09-22T06:37:02.250Z,14.40
2022-09-22T06:39:30.062Z,7.37
2022-09-22T06:41:57.884Z,7.20
2022-09-22T06:44:26.241Z,4.80
2022-09-22T06:46:53.764Z,5.23
2022-09-22T06:49:21.610Z,4.30
2022-09-22T06:51:49.424Z,3.90
2022-09-22T06:54:18.857Z,4.20
2022-09-22T06:56:47.235Z,4.00
2022-09-22T06:59:16.651Z,3.73
2022-09-22T07:01:45.487Z,3.50
2022-09-22T07:04:13.473Z,3.60
2022-09-22T07:06:42.617Z,3.57
2022-09-22T07:09:10.227Z,3.67
2022-09-22T07:11:40.482Z,3.40
2022-09-22T07:14:08.324Z,2.70
2022-09-22T07:16:36.374Z,3.10
2022-09-22T07:19:04.925Z,3.10
2022-09-22T07:21:35.190Z,3.70
2022-09-22T07:24:03.629Z,3.20
2022-09-22T07:26:32.698Z,3.50
2022-09-22T07:29:02.252Z,3.50
2022-09-22T07:31:31.935Z,2.90
2022-09-22T07:34:00.496Z,1.90
2022-09-22T07:36:29.144Z,2.30
2022-09-22T07:38:58.088Z,2.23
2022-09-22T07:41:27.632Z,2.10
2022-09-22T07:43:56.633Z,2.20
2022-09-22T07:46:25.501Z,3.30
2022-09-22T07:48:53.246Z,2.40
2022-09-22T07:51:21.746Z,3.03
2022-09-22T07:53:51.736Z,2.30
2022-09-22T07:56:21.425Z,2.53
2022-09-22T07:58:50.022Z,2.90
2022-09-22T08:01:18.406Z,2.60
2022-09-22T08:03:47.544Z,2.40
2022-09-22T08:06:16.620Z,2.27
2022-09-22T08:08:46.163Z,2.97
2022-09-22T08:11:14.871Z,2.00
2022-09-22T08:13:44.198Z,3.63
2022-09-22T08:16:11.931Z,1.80
2022-09-22T08:18:40.889Z,2.80
2022-09-22T08:21:09.783Z,2.03
2022-09-22T08:23:37.727Z,1.80
2022-09-22T08:26:05.899Z,1.70
2022-09-22T08:28:33.587Z,1.60
2022-09-22T08:31:01.438Z,1.40
2022-09-22T08:33:30.959Z,1.70
2022-09-22T08:35:59.158Z,1.93
2022-09-22T08:38:28.242Z,1.43
2022-09-22T08:41:03.326Z,2.10
2022-09-22T08:43:32.337Z,1.23
2022-09-22T08:46:01.087Z,1.50
2022-09-22T08:48:46.619Z,1.53
2022-09-22T08:51:33.673Z,2.23
2022-09-22T08:54:04.223Z,1.57
2022-09-22T08:56:34.530Z,1.00
2022-09-22T08:59:04.959Z,1.20
2022-09-22T09:01:46.246Z,1.10
2022-09-22T09:04:29.003Z,1.30
2022-09-22T09:07:01.221Z,1.27
2022-09-22T09:09:53.797Z,1.70
2022-09-22T09:12:27.986Z,1.03
2022-09-22T09:15:08.750Z,1.60
2022-09-22T09:17:38.402Z,1.03
2022-09-22T09:20:16.806Z,1.00
2022-09-22T09:22:48.590Z,1.10
2022-09-22T09:25:23.017Z,0.80
2022-09-22T09:27:54.790Z,1.10
2022-09-22T09:30:23.150Z,1.10
2022-09-22T09:32:52.651Z,0.90
2022-09-22T09:35:26.933Z,1.30
2022-09-22T09:37:55.857Z,1.60
2022-09-22T09:40:23.624Z,1.37
2022-09-22T09:42:56.470Z,0.93
2022-09-22T09:45:26.928Z,3.93
2022-09-22T09:48:01.891Z,2.70
2022-09-22T09:50:32.318Z,2.00
2022-09-22T09:53:00.702Z,1.20
2022-09-22T09:55:28.841Z,1.00
2022-09-22T09:58:05.838Z,0.93
2022-09-22T10:00:33.878Z,3.00
2022-09-22T10:03:05.766Z,1.87
2022-09-22T10:05:37.702Z,1.87
2022-09-22T10:08:15.586Z,0.90
2022-09-22T10:10:44.437Z,1.30
2022-09-22T10:13:36.047Z,1.20
2022-09-22T10:16:07.690Z,1.20
2022-09-22T10:18:37.737Z,0.90
2022-09-22T10:21:07.125Z,1.10
2022-09-22T10:23:34.696Z,1.60
2022-09-22T10:26:16.462Z,1.83
2022-09-22T10:28:44.270Z,3.90
2022-09-22T10:31:21.079Z,1.90
2022-09-22T10:33:56.584Z,1.93
2022-09-22T10:36:26.123Z,1.27
2022-09-22T10:38:57.348Z,1.20
2022-09-22T10:41:34.241Z,1.60
2022-09-22T10:44:21.293Z,0.80
2022-09-22T10:47:05.334Z,0.93
2022-09-22T10:49:41.715Z,3.10
2022-09-22T10:52:11.473Z,2.13
2022-09-22T10:54:59.352Z,1.00
2022-09-22T10:57:31.491Z,1.00
2022-09-22T11:00:04.319Z,1.10
2022-09-22T11:02:46.427Z,1.33
2022-09-22T11:05:44.213Z,2.70
2022-09-22T11:08:31.922Z,0.97
2022-09-22T11:11:21.233Z,2.13
2022-09-22T11:13:55.161Z,2.80
2022-09-22T11:16:28.647Z,1.47
2022-09-22T11:19:14.215Z,1.03
2022-09-22T11:21:49.428Z,1.63
2022-09-22T11:24:37.861Z,1.80
2022-09-22T11:27:07.329Z,0.93
2022-09-22T11:29:50.961Z,1.20
2022-09-22T11:32:28.179Z,1.70
2022-09-22T11:38:01.671Z,1.60
2022-09-22T11:40:47.212Z,1.30
2022-09-22T11:43:31.761Z,1.30
2022-09-22T11:46:04.766Z,0.90
2022-09-22T11:48:39.338Z,1.20
2022-09-22T11:51:18.260Z,1.10
2022-09-22T11:54:03.859Z,1.67
2022-09-22T11:56:39.856Z,1.00
2022-09-22T11:59:13.770Z,1.13
2022-09-22T12:01:42.698Z,0.93
2022-09-22T12:04:16.153Z,1.10
2022-09-22T12:06:47.729Z,1.90
2022-09-22T12:09:21.468Z,1.50
2022-09-22T12:11:49.518Z,0.80
2022-09-22T12:14:17.283Z,0.97
2022-09-22T12:16:48.634Z,1.40
2022-09-22T12:19:22.081Z,0.90
2022-09-22T12:21:53.619Z,1.27
2022-09-22T12:24:21.627Z,1.63
2022-09-22T12:26:50.993Z,1.60
2022-09-22T12:29:24.254Z,2.10
2022-09-22T12:31:53.611Z,0.70
2022-09-22T12:34:22.311Z,1.17
2022-09-22T12:36:52.597Z,1.50
2022-09-22T12:39:21.941Z,1.40
2022-09-22T12:41:52.264Z,2.17
2022-09-22T12:44:22.038Z,1.00
2022-09-22T12:46:50.210Z,1.00
2022-09-22T12:49:19.083Z,1.00
2022-09-22T12:51:47.098Z,1.60
2022-09-22T12:54:47.842Z,1.13
2022-09-22T12:57:29.959Z,2.87
2022-09-22T12:59:59.731Z,1.40
2022-09-22T13:02:29.377Z,1.40
2022-09-22T13:05:15.676Z,0.80
2022-09-22T13:07:46.860Z,0.80
2022-09-22T13:10:32.140Z,1.80
2022-09-22T13:13:17.749Z,1.43
2022-09-22T13:16:00.100Z,2.03
2022-09-22T13:18:28.669Z,2.60
2022-09-22T13:20:56.226Z,1.97
2022-09-22T13:23:23.694Z,1.30
2022-09-22T13:25:51.875Z,1.20
2022-09-22T13:28:21.011Z,1.40
2022-09-22T13:31:01.222Z,1.20
2022-09-22T13:33:34.976Z,1.10
2022-09-22T13:36:04.517Z,3.03
2022-09-22T13:38:33.977Z,0.87
2022-09-22T13:41:01.577Z,1.07
2022-09-22T13:43:32.214Z,1.50
2022-09-22T13:46:01.236Z,0.60
2022-09-22T13:48:31.173Z,1.10
2022-09-22T13:51:02.486Z,0.83
2022-09-22T13:53:31.096Z,0.90
2022-09-22T13:55:59.026Z,1.90
2022-09-22T13:58:35.055Z,1.20
2022-09-22T14:01:13.537Z,0.80
2022-09-22T14:03:42.346Z,1.30
2022-09-22T14:06:13.841Z,1.20
2022-09-22T14:08:42.438Z,1.40
2022-09-22T14:11:13.514Z,1.40
2022-09-22T14:13:44.981Z,0.80
2022-09-22T14:16:21.675Z,0.70
2022-09-22T14:18:51.441Z,0.87
2022-09-22T14:21:21.305Z,0.83
2022-09-22T14:23:50.032Z,0.70
2022-09-22T14:26:21.238Z,1.23
2022-09-22T14:28:49.160Z,0.90
2022-09-22T14:31:21.360Z,1.20
2022-09-22T14:33:49.006Z,1.20
2022-09-22T14:36:18.477Z,1.10
2022-09-22T14:39:04.330Z,0.73
2022-09-22T14:41:36.924Z,0.73
2022-09-22T14:44:19.655Z,0.80
2022-09-22T14:46:47.178Z,1.30
2022-09-22T14:49:35.870Z,1.50
2022-09-22T14:52:03.826Z,1.30
2022-09-22T14:54:34.788Z,1.10
2022-09-22T14:57:04.341Z,0.97
2022-09-22T14:59:52.014Z,2.20
2022-09-22T15:02:36.073Z,1.87
2022-09-22T15:05:04.283Z,1.80
2022-09-22T15:07:33.621Z,1.53
2022-09-22T15:10:03.517Z,1.93
2022-09-22T15:12:35.001Z,1.60
2022-09-22T15:15:03.058Z,1.83
2022-09-22T15:17:56.629Z,1.70
2022-09-22T15:20:26.855Z,1.13
2022-09-22T15:22:55.045Z,1.33
2022-09-22T15:25:24.521Z,0.87
2022-09-22T15:27:53.564Z,1.00
2022-09-22T15:30:21.851Z,0.80
2022-09-22T15:32:49.648Z,0.80
2022-09-22T15:35:20.915Z,1.10
2022-09-22T15:37:50.157Z,0.90
2022-09-22T15:40:19.316Z,1.50
2022-09-22T15:43:09.004Z,1.27
2022-09-22T15:45:37.232Z,1.30
2022-09-22T15:48:05.075Z,1.67
2022-09-22T15:50:32.688Z,1.20
2022-09-22T15:53:00.298Z,1.30
2022-09-22T15:55:28.151Z,1.17
2022-09-22T15:58:09.052Z,1.20
2022-09-22T16:00:38.044Z,2.23
2022-09-22T16:03:13.653Z,1.67
2022-09-22T16:05:41.871Z,1.23
2022-09-22T16:08:13.562Z,1.23
2022-09-22T16:10:42.805Z,1.20
2022-09-22T16:13:12.757Z,1.77
2022-09-22T16:15:40.483Z,1.30
2022-09-22T16:18:08.588Z,1.37
2022-09-22T16:20:37.360Z,1.20
2022-09-22T16:23:05.796Z,1.37
2022-09-22T16:25:33.630Z,1.23
2022-09-22T16:28:01.178Z,1.87
2022-09-22T16:30:30.275Z,1.00
2022-09-22T16:32:57.928Z,1.50
2022-09-22T16:35:25.493Z,1.23
2022-09-22T16:46:30.107Z,1.80
2022-09-22T16:49:00.286Z,2.60
2022-09-22T16:51:28.635Z,3.47
2022-09-22T16:53:56.568Z,1.80
2022-09-22T16:56:24.991Z,1.40
2022-09-22T16:58:52.867Z,1.63
2022-09-22T17:01:21.983Z,2.17
2022-09-22T17:03:50.268Z,1.20
2022-09-22T17:06:25.363Z,2.23
2022-09-22T17:08:53.904Z,2.20
2022-09-22T17:11:23.370Z,2.47
2022-09-22T17:13:50.934Z,3.03
2022-09-22T17:16:20.948Z,8.10
2022-09-22T17:18:50.820Z,5.33
2022-09-22T17:21:21.899Z,6.43
2022-09-22T17:23:50.580Z,4.07
2022-09-22T17:26:18.898Z,4.67
2022-09-22T17:28:46.511Z,4.50
2022-09-22T17:31:15.132Z,4.70
2022-09-22T17:33:46.973Z,5.53
2022-09-22T17:36:20.743Z,7.37
2022-09-22T17:38:50.576Z,4.93
2022-09-22T17:41:19.940Z,6.40
2022-09-22T17:43:48.689Z,6.33
2022-09-22T17:46:17.227Z,6.30
2022-09-22T17:49:02.259Z,6.50
2022-09-22T17:51:51.979Z,5.90
2022-09-22T17:54:38.931Z,5.73
2022-09-22T17:57:07.231Z,5.30
2022-09-22T17:59:34.775Z,5.70
2022-09-22T18:02:03.798Z,5.20
2022-09-22T18:04:31.521Z,4.53
2022-09-22T18:07:02.542Z,13.10
2022-09-22T18:09:32.205Z,9.10
2022-09-22T18:11:59.836Z,6.80
2022-09-22T18:14:27.447Z,5.57
2022-09-22T18:16:55.322Z,4.70
2022-09-22T18:19:22.789Z,6.13
2022-09-22T18:21:50.712Z,5.30
2022-09-22T18:24:19.691Z,4.73
2022-09-22T18:26:47.513Z,7.00
2022-09-22T18:29:16.931Z,6.70
2022-09-22T18:31:46.499Z,5.57
2022-09-22T18:34:14.526Z,5.60
2022-09-22T18:36:42.322Z,7.87
2022-09-22T18:39:10.188Z,13.07
2022-09-22T18:41:39.547Z,8.10
2022-09-22T18:44:09.117Z,9.00
2022-09-22T18:46:37.083Z,8.73
2022-09-22T18:49:05.889Z,7.77
2022-09-22T18:51:33.896Z,9.50
2022-09-22T18:54:07.968Z,9.57
2022-09-22T18:56:36.445Z,8.70
2022-09-22T18:59:05.697Z,8.97
2022-09-22T19:01:35.454Z,8.90
2022-09-22T19:04:03.491Z,9.07
2022-09-22T19:06:52.198Z,8.50
2022-09-22T19:09:20.018Z,10.17
2022-09-22T19:16:02.016Z,11.90
2022-09-22T19:18:31.586Z,10.20
2022-09-22T19:21:03.764Z,10.27
2022-09-22T19:23:32.228Z,10.80
2022-09-22T19:25:59.847Z,13.03
2022-09-22T19:28:28.778Z,12.73
2022-09-22T19:30:56.353Z,9.67
2022-09-22T19:33:25.240Z,9.23
2022-09-22T19:35:52.767Z,10.77
2022-09-22T19:38:20.445Z,16.40
2022-09-22T19:40:48.028Z,13.83
2022-09-22T19:43:15.905Z,11.67
2022-09-22T19:45:43.798Z,11.53
2022-09-22T19:48:12.030Z,13.07
2022-09-22T19:50:41.114Z,12.07
2022-09-22T19:53:08.926Z,12.23
2022-09-22T19:55:36.439Z,11.17
2022-09-22T19:58:04.155Z,13.90
2022-09-22T20:00:31.993Z,12.40
2022-09-22T20:02:59.812Z,10.60
2022-09-22T20:05:28.857Z,10.87
2022-09-22T20:07:57.857Z,9.10
2022-09-22T20:10:25.521Z,10.50
2022-09-22T20:12:53.498Z,13.20
2022-09-22T20:15:21.042Z,11.90
2022-09-22T20:17:48.883Z,13.50
2022-09-22T20:20:17.643Z,13.33
2022-09-22T20:22:46.569Z,16.17
2022-09-22T20:25:21.706Z,17.67
2022-09-22T20:27:49.836Z,15.67
2022-09-22T20:30:19.990Z,13.33
2022-09-22T20:32:47.920Z,17.17
2022-09-22T20:35:17.888Z,16.80
2022-09-22T20:37:45.851Z,14.80
2022-09-22T20:40:14.619Z,15.53
2022-09-22T20:42:45.607Z,13.80
2022-09-22T20:45:14.171Z,15.37
2022-09-22T20:47:42.192Z,14.13
2022-09-22T20:50:11.854Z,16.80
2022-09-22T20:52:40.438Z,13.57
2022-09-22T20:55:08.551Z,14.67
2022-09-22T20:57:37.015Z,13.10
2022-09-22T21:00:07.009Z,13.70
2022-09-22T21:02:34.687Z,13.63
2022-09-22T21:05:02.537Z,13.17
2022-09-22T21:07:32.257Z,13.03
2022-09-22T21:10:17.637Z,15.37
2022-09-22T21:12:45.762Z,13.33
2022-09-22T21:15:15.054Z,15.13
2022-09-22T21:17:43.940Z,24.00
2022-09-22T21:20:12.157Z,13.57
2022-09-22T21:22:40.712Z,14.80
2022-09-22T21:25:08.619Z,13.00
2022-09-22T21:27:37.468Z,13.03
2022-09-22T21:30:05.427Z,13.10
2022-09-22T21:32:35.151Z,13.20
2022-09-22T21:35:03.195Z,14.30
2022-09-22T21:37:31.309Z,14.77
2022-09-22T21:40:00.258Z,14.67
2022-09-22T21:42:28.336Z,15.40
2022-09-22T21:44:56.086Z,15.43
2022-09-22T21:47:24.166Z,15.17
2022-09-22T21:49:53.468Z,17.40
2022-09-22T21:52:21.166Z,16.20
2022-09-22T21:54:49.291Z,16.23
2022-09-22T21:57:18.199Z,16.43
2022-09-22T21:59:45.639Z,15.97
2022-09-22T22:02:13.335Z,21.57
2022-09-22T22:04:41.209Z,13.37
2022-09-22T22:07:11.847Z,16.00
2022-09-22T22:09:39.767Z,15.83
2022-09-22T22:12:07.477Z,16.87
2022-09-22T22:14:35.038Z,16.70
2022-09-22T22:17:03.237Z,22.37
2022-09-22T22:19:31.223Z,18.30
2022-09-22T22:21:58.853Z,16.37
2022-09-22T22:24:39.030Z,14.53
2022-09-22T22:27:07.766Z,14.53
2022-09-22T22:29:36.239Z,15.07
2022-09-22T22:32:06.121Z,15.27
2022-09-22T22:34:33.667Z,15.20
2022-09-22T22:37:01.369Z,14.83
2022-09-22T22:39:30.628Z,14.83
2022-09-22T22:41:58.264Z,15.13
2022-09-22T22:44:25.897Z,15.93
2022-09-22T22:46:53.779Z,14.50
2022-09-22T22:49:21.378Z,16.70
2022-09-22T22:51:50.359Z,21.33
2022-09-22T22:54:17.853Z,23.40
2022-09-22T22:56:51.058Z,18.20
2022-09-22T22:59:19.408Z,14.80
2022-09-22T23:01:47.503Z,15.70
2022-09-22T23:04:16.565Z,15.30
2022-09-22T23:06:44.838Z,14.63
2022-09-22T23:09:14.094Z,15.83
2022-09-22T23:11:41.991Z,13.60
2022-09-22T23:14:11.899Z,12.70
2022-09-22T23:16:40.911Z,13.00
2022-09-22T23:19:09.309Z,12.70
2022-09-22T23:21:37.092Z,12.67
2022-09-22T23:24:05.151Z,13.47
2022-09-22T23:26:33.036Z,11.97
2022-09-22T23:29:01.395Z,11.90
2022-09-22T23:31:31.726Z,12.80
2022-09-22T23:33:59.436Z,12.03
2022-09-22T23:36:28.254Z,11.57
2022-09-22T23:38:56.479Z,11.43
2022-09-22T23:41:24.107Z,11.93
2022-09-22T23:43:52.013Z,11.37
2022-09-22T23:46:21.232Z,11.53
2022-09-22T23:48:50.187Z,11.30
2022-09-22T23:51:19.504Z,10.63
2022-09-22T23:53:47.565Z,10.90
2022-09-22T23:56:14.998Z,10.40
2022-09-22T23:58:42.788Z,10.37
